createdAt,value
2019-03-28T00:01:27.243Z,86.59
2019-03-28T00:03:57.736Z,86.60
2019-03-28T00:06:28.272Z,86.55
2019-03-28T00:08:59.268Z,86.56
2019-03-28T00:11:29.663Z,86.45
2019-03-28T00:14:00.508Z,86.34
2019-03-28T00:16:31.100Z,86.37
2019-03-28T00:19:02.214Z,86.39
2019-03-28T00:21:33.028Z,86.39
2019-03-28T00:24:05.569Z,86.47
2019-03-28T00:26:36.145Z,86.49
2019-03-28T00:29:06.618Z,86.53
2019-03-28T00:31:37.145Z,86.57
2019-03-28T00:34:07.780Z,86.56
2019-03-28T00:36:38.620Z,86.62
2019-03-28T00:39:09.549Z,86.60
2019-03-28T00:41:40.380Z,86.68
2019-03-28T00:44:11.312Z,86.70
2019-03-28T00:46:41.990Z,86.74
2019-03-28T00:49:12.942Z,86.75
2019-03-28T00:51:43.606Z,86.71
2019-03-28T00:54:14.062Z,86.77
2019-03-28T00:56:47.346Z,86.80
2019-03-28T00:59:18.206Z,86.82
2019-03-28T01:01:48.654Z,86.89
2019-03-28T01:04:19.313Z,86.86
2019-03-28T01:06:50.113Z,86.80
2019-03-28T01:09:20.705Z,86.74
2019-03-28T01:11:51.237Z,86.76
2019-03-28T01:14:21.828Z,86.70
2019-03-28T01:16:53.426Z,86.67
2019-03-28T01:19:24.202Z,86.65
2019-03-28T01:21:55.011Z,86.65
2019-03-28T01:24:25.849Z,86.55
2019-03-28T01:26:57.407Z,86.61
2019-03-28T01:29:28.817Z,86.54
2019-03-28T01:31:59.379Z,86.58
2019-03-28T01:34:30.118Z,86.61
2019-03-28T01:37:00.943Z,86.59
2019-03-28T01:39:31.776Z,86.54
2019-03-28T01:42:02.301Z,86.67
2019-03-28T01:44:33.318Z,86.66
2019-03-28T01:47:04.419Z,86.67
2019-03-28T01:49:35.046Z,86.61
2019-03-28T01:52:05.754Z,86.54
2019-03-28T01:54:36.135Z,86.64
2019-03-28T01:57:11.280Z,86.63
2019-03-28T01:59:39.782Z,86.61
2019-03-28T02:02:11.919Z,86.60
2019-03-28T02:04:42.482Z,86.61
2019-03-28T02:07:12.971Z,86.56
2019-03-28T02:09:43.590Z,86.62
2019-03-28T02:12:14.769Z,86.67
2019-03-28T02:14:45.289Z,86.67
2019-03-28T02:17:16.004Z,86.56
2019-03-28T02:19:46.516Z,86.46
2019-03-28T02:22:17.233Z,86.50
2019-03-28T02:24:47.878Z,86.49
2019-03-28T02:27:23.771Z,86.50
2019-03-28T02:29:50.856Z,86.57
2019-03-28T02:32:21.340Z,86.66
2019-03-28T02:34:52.044Z,86.77
2019-03-28T02:37:22.536Z,86.85
2019-03-28T02:39:53.277Z,86.99
2019-03-28T02:42:23.610Z,87.11
2019-03-28T02:44:54.029Z,87.26
2019-03-28T02:47:24.660Z,87.34
2019-03-28T02:49:55.382Z,87.44
2019-03-28T02:52:25.816Z,87.47
2019-03-28T02:54:56.319Z,87.42
2019-03-28T02:57:40.254Z,87.46
2019-03-28T03:00:00.156Z,87.37
2019-03-28T03:02:30.891Z,87.34
2019-03-28T03:05:01.532Z,87.45
2019-03-28T03:07:32.098Z,87.55
2019-03-28T03:10:03.294Z,87.61
2019-03-28T03:12:33.839Z,87.57
2019-03-28T03:15:06.158Z,87.70
2019-03-28T03:17:37.629Z,87.53
2019-03-28T03:20:08.150Z,87.59
2019-03-28T03:22:39.679Z,87.42
2019-03-28T03:25:10.144Z,87.44
2019-03-28T03:27:56.967Z,87.37
2019-03-28T03:30:13.604Z,87.40
2019-03-28T03:32:44.117Z,87.28
2019-03-28T03:35:14.693Z,87.41
2019-03-28T03:37:45.499Z,87.05
2019-03-28T03:40:16.159Z,86.97
2019-03-28T03:42:48.525Z,87.21
2019-03-28T03:45:19.011Z,86.87
2019-03-28T03:47:49.700Z,86.99
2019-03-28T03:50:27.917Z,87.03
2019-03-28T03:52:58.313Z,86.97
2019-03-28T03:55:29.404Z,87.03
2019-03-28T03:58:14.595Z,86.69
2019-03-28T04:00:35.176Z,86.35
2019-03-28T04:03:05.861Z,86.42
2019-03-28T04:05:36.383Z,85.97
2019-03-28T04:08:07.434Z,85.97
2019-03-28T04:10:38.237Z,85.82
2019-03-28T04:13:10.698Z,86.02
2019-03-28T04:15:41.717Z,85.91
2019-03-28T04:18:12.314Z,85.75
2019-03-28T04:20:43.001Z,85.83
2019-03-28T04:23:13.671Z,85.87
2019-03-28T04:25:44.583Z,85.89
2019-03-28T04:28:30.798Z,85.67
2019-03-28T04:30:47.956Z,85.94
2019-03-28T04:33:19.523Z,85.64
2019-03-28T04:35:50.504Z,85.66
2019-03-28T04:38:21.042Z,85.55
2019-03-28T04:40:51.979Z,85.58
2019-03-28T04:43:22.674Z,85.59
2019-03-28T04:45:53.595Z,85.77
2019-03-28T04:48:24.075Z,86.06
2019-03-28T04:50:54.916Z,85.99
2019-03-28T04:53:25.876Z,86.02
2019-03-28T04:55:56.433Z,86.27
2019-03-28T04:58:28.440Z,86.37
2019-03-28T05:00:59.996Z,86.36
2019-03-28T05:03:30.647Z,86.36
2019-03-28T05:06:01.526Z,86.30
2019-03-28T05:08:32.099Z,86.36
2019-03-28T05:11:05.506Z,86.43
2019-03-28T05:13:36.108Z,86.37
2019-03-28T05:16:07.067Z,86.35
2019-03-28T05:18:37.740Z,86.20
2019-03-28T05:21:09.549Z,86.16
2019-03-28T05:23:40.550Z,85.93
2019-03-28T05:26:11.579Z,85.79
2019-03-28T05:28:42.044Z,85.68
2019-03-28T05:31:12.502Z,85.57
2019-03-28T05:33:43.375Z,85.32
2019-03-28T05:36:14.291Z,85.33
2019-03-28T05:38:46.574Z,85.25
2019-03-28T05:41:17.622Z,85.15
2019-03-28T05:43:48.472Z,84.78
2019-03-28T05:46:19.303Z,84.76
2019-03-28T05:48:49.775Z,84.55
2019-03-28T05:51:20.478Z,84.53
2019-03-28T05:53:50.776Z,83.98
2019-03-28T05:56:22.436Z,84.16
2019-03-28T05:58:53.025Z,83.81
2019-03-28T06:01:24.946Z,83.52
2019-03-28T06:03:55.889Z,83.39
2019-03-28T06:06:26.689Z,83.20
2019-03-28T06:08:57.440Z,82.51
2019-03-28T06:11:28.608Z,82.91
2019-03-28T06:14:01.045Z,82.11
2019-03-28T06:16:32.036Z,82.19
2019-03-28T06:19:02.884Z,82.46
2019-03-28T06:21:33.620Z,81.66
2019-03-28T06:24:04.253Z,81.88
2019-03-28T06:26:35.152Z,81.12
2019-03-28T06:29:08.649Z,80.96
2019-03-28T06:31:38.859Z,81.45
2019-03-28T06:34:09.571Z,80.77
2019-03-28T06:36:40.507Z,80.99
2019-03-28T06:39:11.335Z,80.87
2019-03-28T06:41:44.356Z,79.98
2019-03-28T06:44:14.814Z,79.66
2019-03-28T06:46:45.501Z,79.01
2019-03-28T06:49:16.009Z,79.26
2019-03-28T06:51:48.383Z,79.04
2019-03-28T06:54:19.147Z,80.00
2019-03-28T06:56:49.973Z,80.16
2019-03-28T06:59:21.839Z,80.04
2019-03-28T07:01:52.669Z,79.41
2019-03-28T07:04:23.707Z,80.53
2019-03-28T07:06:54.508Z,79.93
2019-03-28T07:09:25.848Z,79.70
2019-03-28T07:11:56.202Z,80.17
2019-03-28T07:14:26.902Z,79.42
2019-03-28T07:16:57.532Z,80.03
2019-03-28T07:19:28.387Z,79.05
2019-03-28T07:21:59.325Z,78.24
2019-03-28T07:24:29.947Z,78.16
2019-03-28T07:27:01.167Z,78.04
2019-03-28T07:29:32.459Z,77.45
2019-03-28T07:32:03.595Z,78.29
2019-03-28T07:34:34.519Z,78.18
2019-03-28T07:37:04.926Z,77.45
2019-03-28T07:39:35.324Z,77.73
2019-03-28T07:42:06.110Z,76.80
2019-03-28T07:44:37.660Z,77.10
2019-03-28T07:47:08.328Z,76.49
2019-03-28T07:49:38.699Z,75.55
2019-03-28T07:52:10.364Z,75.53
2019-03-28T07:54:40.799Z,74.82
2019-03-28T07:57:11.493Z,74.18
2019-03-28T07:59:44.210Z,73.09
2019-03-28T08:02:16.789Z,72.07
2019-03-28T08:04:47.235Z,73.02
2019-03-28T08:07:17.857Z,71.94
2019-03-28T08:09:48.325Z,71.15
2019-03-28T08:12:22.867Z,70.36
2019-03-28T08:14:51.009Z,69.56
2019-03-28T08:17:23.015Z,68.37
2019-03-28T08:19:53.529Z,68.33
2019-03-28T08:22:24.888Z,65.67
2019-03-28T08:24:55.660Z,63.30
2019-03-28T08:27:26.539Z,63.00
2019-03-28T08:29:57.927Z,54.32
2019-03-28T08:32:30.695Z,50.58
2019-03-28T08:35:01.313Z,49.69
2019-03-28T08:37:35.991Z,56.85
2019-03-28T08:40:08.114Z,57.69
2019-03-28T08:42:39.044Z,56.28
2019-03-28T08:45:09.704Z,58.76
2019-03-28T08:47:40.471Z,59.98
2019-03-28T08:50:11.217Z,60.87
2019-03-28T08:52:41.868Z,62.36
2019-03-28T08:55:14.203Z,63.00
2019-03-28T08:57:45.136Z,63.44
2019-03-28T09:00:17.369Z,58.53
2019-03-28T09:02:49.373Z,51.30
2019-03-28T09:05:20.139Z,50.51
2019-03-28T09:07:50.936Z,53.34
2019-03-28T09:10:21.420Z,54.60
2019-03-28T09:12:51.894Z,57.62
2019-03-28T09:15:23.265Z,57.54
2019-03-28T09:17:53.919Z,57.54
2019-03-28T09:20:24.496Z,56.07
2019-03-28T09:22:55.363Z,59.67
2019-03-28T09:25:25.896Z,58.66
2019-03-28T09:27:56.505Z,55.31
2019-03-28T09:30:46.804Z,49.02
2019-03-28T09:33:05.797Z,45.92
2019-03-28T09:35:36.427Z,44.93
2019-03-28T09:38:06.780Z,44.08
2019-03-28T09:40:37.354Z,41.88
2019-03-28T09:43:08.277Z,49.08
2019-03-28T09:45:38.894Z,50.06
2019-03-28T09:48:11.650Z,49.11
2019-03-28T09:50:41.705Z,50.95
2019-03-28T09:53:12.524Z,51.97
2019-03-28T09:55:43.055Z,52.89
2019-03-28T09:58:13.951Z,53.43
2019-03-28T10:00:45.867Z,51.63
2019-03-28T10:03:16.534Z,51.57
2019-03-28T10:05:47.165Z,50.35
2019-03-28T10:08:18.827Z,52.04
2019-03-28T10:10:49.460Z,50.65
2019-03-28T10:13:19.945Z,52.36
2019-03-28T10:15:50.605Z,51.95
2019-03-28T10:18:21.317Z,52.20
2019-03-28T10:20:51.913Z,49.64
2019-03-28T10:23:22.855Z,50.54
2019-03-28T10:25:53.568Z,50.61
2019-03-28T10:28:24.654Z,48.40
2019-03-28T10:30:56.310Z,50.94
2019-03-28T10:33:27.028Z,52.30
2019-03-28T10:35:57.803Z,53.36
2019-03-28T10:38:28.505Z,52.64
2019-03-28T10:41:00.147Z,51.20
2019-03-28T10:43:31.011Z,50.66
2019-03-28T10:46:02.495Z,50.15
2019-03-28T10:48:33.265Z,51.40
2019-03-28T10:51:03.657Z,51.45
2019-03-28T10:53:34.544Z,52.23
2019-03-28T10:56:05.158Z,52.89
2019-03-28T10:58:37.505Z,53.73
2019-03-28T11:01:09.154Z,51.68
2019-03-28T11:03:39.927Z,53.58
2019-03-28T11:06:10.434Z,50.97
2019-03-28T11:08:42.648Z,49.41
2019-03-28T11:11:14.541Z,49.63
2019-03-28T11:13:45.990Z,49.67
2019-03-28T11:16:16.625Z,50.36
2019-03-28T11:18:47.037Z,51.87
2019-03-28T11:21:17.635Z,51.87
2019-03-28T11:23:48.123Z,51.55
2019-03-28T11:26:19.884Z,49.62
2019-03-28T11:28:50.703Z,51.46
2019-03-28T11:31:21.429Z,50.06
2019-03-28T11:33:51.909Z,50.06
2019-03-28T11:36:22.597Z,50.26
2019-03-28T11:38:53.144Z,50.94
2019-03-28T11:41:23.950Z,49.87
2019-03-28T11:43:54.559Z,48.80
2019-03-28T11:46:25.041Z,47.17
2019-03-28T11:48:55.520Z,47.34
2019-03-28T11:51:27.517Z,48.45
2019-03-28T11:53:57.935Z,47.02
2019-03-28T11:56:29.781Z,46.45
2019-03-28T11:59:00.224Z,47.29
2019-03-28T12:01:32.387Z,47.75
2019-03-28T12:04:02.852Z,46.72
2019-03-28T12:06:34.318Z,47.31
2019-03-28T12:09:07.388Z,46.12
2019-03-28T12:11:38.115Z,46.47
2019-03-28T12:14:08.645Z,45.31
2019-03-28T12:16:40.616Z,47.60
2019-03-28T12:19:11.221Z,47.13
2019-03-28T12:21:41.782Z,46.84
2019-03-28T12:24:12.676Z,47.48
2019-03-28T12:26:43.490Z,49.78
2019-03-28T12:29:13.999Z,47.73
2019-03-28T12:31:46.169Z,45.90
2019-03-28T12:34:16.661Z,47.28
2019-03-28T12:36:47.509Z,48.05
2019-03-28T12:39:18.095Z,49.04
2019-03-28T12:41:48.786Z,48.76
2019-03-28T12:44:19.367Z,49.18
2019-03-28T12:46:51.596Z,51.09
2019-03-28T12:49:38.955Z,50.72
2019-03-28T12:52:09.407Z,51.08
2019-03-28T12:54:43.997Z,51.19
2019-03-28T12:57:14.542Z,49.14
2019-03-28T12:59:45.802Z,50.07
2019-03-28T13:02:28.323Z,50.38
2019-03-28T13:04:49.745Z,49.03
2019-03-28T13:07:20.672Z,47.66
2019-03-28T13:09:51.281Z,46.94
2019-03-28T13:12:22.911Z,48.75
2019-03-28T13:14:53.812Z,46.58
2019-03-28T13:17:24.336Z,49.54
2019-03-28T13:19:54.851Z,49.64
2019-03-28T13:22:25.301Z,47.32
2019-03-28T13:24:56.345Z,47.62
2019-03-28T13:27:26.943Z,46.74
2019-03-28T13:29:57.700Z,45.64
2019-03-28T13:32:41.043Z,46.36
2019-03-28T13:35:00.822Z,47.02
2019-03-28T13:37:31.864Z,46.97
2019-03-28T13:40:02.685Z,47.89
2019-03-28T13:42:33.317Z,46.00
2019-03-28T13:45:07.914Z,46.00
2019-03-28T13:47:38.510Z,46.00
2019-03-28T13:50:09.843Z,47.47
2019-03-28T13:52:40.596Z,45.46
2019-03-28T13:55:11.234Z,46.05
2019-03-28T13:57:43.413Z,46.17
2019-03-28T14:00:15.475Z,44.84
2019-03-28T14:02:57.166Z,45.99
2019-03-28T14:05:18.526Z,46.02
2019-03-28T14:07:49.166Z,45.40
2019-03-28T14:10:21.760Z,44.29
2019-03-28T14:12:52.188Z,45.78
2019-03-28T14:15:22.849Z,44.16
2019-03-28T14:17:54.154Z,42.44
2019-03-28T14:20:24.650Z,44.74
2019-03-28T14:22:56.942Z,45.69
2019-03-28T14:25:28.029Z,43.77
2019-03-28T14:27:58.902Z,44.37
2019-03-28T14:30:30.008Z,45.46
2019-03-28T14:33:11.294Z,47.47
2019-03-28T14:35:33.487Z,47.26
2019-03-28T14:38:04.067Z,47.05
2019-03-28T14:40:34.546Z,46.65
2019-03-28T14:43:05.397Z,47.29
2019-03-28T14:45:35.969Z,47.52
2019-03-28T14:48:07.101Z,47.85
2019-03-28T14:50:39.193Z,47.74
2019-03-28T14:53:09.822Z,47.74
2019-03-28T14:55:40.381Z,49.00
2019-03-28T14:58:11.084Z,48.93
2019-03-28T15:00:49.036Z,48.93
2019-03-28T15:03:26.111Z,49.00
2019-03-28T15:05:52.305Z,47.37
2019-03-28T15:08:23.094Z,47.14
2019-03-28T15:10:53.609Z,47.14
2019-03-28T15:13:24.327Z,48.11
2019-03-28T15:15:55.732Z,48.21
2019-03-28T15:18:26.195Z,48.21
2019-03-28T15:20:57.212Z,48.09
2019-03-28T15:23:29.101Z,48.48
2019-03-28T15:26:00.200Z,48.78
2019-03-28T15:28:32.368Z,49.19
2019-03-28T15:31:02.972Z,48.04
2019-03-28T15:33:39.738Z,48.10
2019-03-28T15:36:07.884Z,47.84
2019-03-28T15:38:39.918Z,49.08
2019-03-28T15:41:11.883Z,48.30
2019-03-28T15:43:42.573Z,48.14
2019-03-28T15:46:13.181Z,48.62
2019-03-28T15:48:44.123Z,47.49
2019-03-28T15:51:14.727Z,48.12
2019-03-28T15:53:48.061Z,47.77
2019-03-28T15:56:20.440Z,47.82
2019-03-28T15:58:52.812Z,47.37
2019-03-28T16:01:23.557Z,48.72
2019-03-28T16:03:54.286Z,47.64
2019-03-28T16:06:28.108Z,48.30
2019-03-28T16:09:00.370Z,49.59
2019-03-28T16:11:31.825Z,49.65
2019-03-28T16:14:03.316Z,49.38
2019-03-28T16:16:34.264Z,48.11
2019-03-28T16:19:05.736Z,49.23
2019-03-28T16:21:36.639Z,49.06
2019-03-28T16:24:08.288Z,50.14
2019-03-28T16:26:40.358Z,50.33
2019-03-28T16:29:10.869Z,49.98
2019-03-28T16:31:41.318Z,50.15
2019-03-28T16:34:11.866Z,50.34
2019-03-28T16:36:47.051Z,50.45
2019-03-28T16:39:17.738Z,50.14
2019-03-28T16:41:49.107Z,50.39
2019-03-28T16:44:20.207Z,51.25
2019-03-28T16:46:50.690Z,51.31
2019-03-28T16:49:21.512Z,51.98
2019-03-28T16:51:52.029Z,52.01
2019-03-28T16:54:22.860Z,52.83
2019-03-28T16:56:53.754Z,53.21
2019-03-28T16:59:25.482Z,53.48
2019-03-28T17:01:56.404Z,54.69
2019-03-28T17:04:27.920Z,55.40
2019-03-28T17:06:59.678Z,56.58
2019-03-28T17:09:37.463Z,55.42
2019-03-28T17:12:07.047Z,55.94
2019-03-28T17:14:37.714Z,57.80
2019-03-28T17:17:09.006Z,57.49
2019-03-28T17:19:42.623Z,56.97
2019-03-28T17:22:11.640Z,56.66
2019-03-28T17:24:42.197Z,58.09
2019-03-28T17:27:12.723Z,58.31
2019-03-28T17:29:43.433Z,59.54
2019-03-28T17:32:14.945Z,59.90
2019-03-28T17:34:47.277Z,60.48
2019-03-28T17:37:17.783Z,59.25
2019-03-28T17:39:48.441Z,59.11
2019-03-28T17:42:19.046Z,60.19
2019-03-28T17:44:49.525Z,59.89
2019-03-28T17:47:20.206Z,59.30
2019-03-28T17:49:51.759Z,61.50
2019-03-28T17:52:22.557Z,61.00
2019-03-28T17:54:54.690Z,60.26
2019-03-28T17:57:25.608Z,59.05
2019-03-28T17:59:56.250Z,62.16
2019-03-28T18:02:26.995Z,59.91
2019-03-28T18:05:09.233Z,59.65
2019-03-28T18:07:31.052Z,60.56
2019-03-28T18:10:01.543Z,60.44
2019-03-28T18:12:33.100Z,60.18
2019-03-28T18:15:03.950Z,60.81
2019-03-28T18:17:34.740Z,61.09
2019-03-28T18:20:08.314Z,60.87
2019-03-28T18:22:39.453Z,60.79
2019-03-28T18:25:10.264Z,59.55
2019-03-28T18:27:41.321Z,59.22
2019-03-28T18:30:12.159Z,59.40
2019-03-28T18:32:42.879Z,56.94
2019-03-28T18:35:13.516Z,56.92
2019-03-28T18:37:44.752Z,57.21
2019-03-28T18:40:15.295Z,59.70
2019-03-28T18:42:46.635Z,60.01
2019-03-28T18:45:18.051Z,60.47
2019-03-28T18:47:49.423Z,59.42
2019-03-28T18:50:20.073Z,61.10
2019-03-28T18:52:52.777Z,61.86
2019-03-28T18:55:23.839Z,61.76
2019-03-28T18:57:54.459Z,63.84
2019-03-28T19:00:25.925Z,63.87
2019-03-28T19:02:57.036Z,63.87
2019-03-28T19:05:27.908Z,62.71
2019-03-28T19:08:00.260Z,63.23
2019-03-28T19:10:31.669Z,63.91
2019-03-28T19:13:04.744Z,63.84
2019-03-28T19:15:35.093Z,63.57
2019-03-28T19:18:07.685Z,63.87
2019-03-28T19:20:38.690Z,64.45
2019-03-28T19:23:10.488Z,64.25
2019-03-28T19:25:46.621Z,64.26
2019-03-28T19:28:28.236Z,63.84
2019-03-28T19:30:48.914Z,65.77
2019-03-28T19:33:21.516Z,64.96
2019-03-28T19:35:53.339Z,63.06
2019-03-28T19:38:24.343Z,62.78
2019-03-28T19:40:55.024Z,66.22
2019-03-28T19:43:25.522Z,64.48
2019-03-28T19:45:56.319Z,64.90
2019-03-28T19:48:28.026Z,63.42
2019-03-28T19:50:58.934Z,64.15
2019-03-28T19:53:31.386Z,64.28
2019-03-28T19:56:04.027Z,65.33
2019-03-28T19:58:35.285Z,66.07
2019-03-28T20:01:06.556Z,66.38
2019-03-28T20:03:37.471Z,66.47
2019-03-28T20:06:21.291Z,66.50
2019-03-28T20:08:41.405Z,66.71
2019-03-28T20:11:13.410Z,70.27
2019-03-28T20:13:44.279Z,70.03
2019-03-28T20:16:15.043Z,71.04
2019-03-28T20:18:45.793Z,71.81
2019-03-28T20:21:16.868Z,72.34
2019-03-28T20:23:48.874Z,69.54
2019-03-28T20:26:21.707Z,69.48
2019-03-28T20:28:52.341Z,70.62
2019-03-28T20:31:22.917Z,70.86
2019-03-28T20:33:53.678Z,70.70
2019-03-28T20:36:37.660Z,69.53
2019-03-28T20:39:04.288Z,74.49
2019-03-28T20:41:33.331Z,75.01
2019-03-28T20:44:04.174Z,72.07
2019-03-28T20:46:35.248Z,72.38
2019-03-28T20:49:06.404Z,71.61
2019-03-28T20:51:39.359Z,72.79
2019-03-28T20:54:12.212Z,72.77
2019-03-28T20:56:43.234Z,73.36
2019-03-28T20:59:14.487Z,73.15
2019-03-28T21:01:45.717Z,72.39
2019-03-28T21:04:30.320Z,74.65
2019-03-28T21:06:50.177Z,76.61
2019-03-28T21:09:20.998Z,73.00
2019-03-28T21:11:52.963Z,72.22
2019-03-28T21:14:28.036Z,72.04
2019-03-28T21:17:00.599Z,71.48
2019-03-28T21:19:31.635Z,71.21
2019-03-28T21:22:05.725Z,71.67
2019-03-28T21:24:35.097Z,74.73
2019-03-28T21:27:08.459Z,74.77
2019-03-28T21:29:48.762Z,71.76
2019-03-28T21:32:16.474Z,72.34
2019-03-28T21:34:47.767Z,70.53
2019-03-28T21:37:18.857Z,69.96
2019-03-28T21:39:49.654Z,73.56
2019-03-28T21:42:20.250Z,70.44
2019-03-28T21:44:52.673Z,71.89
2019-03-28T21:47:23.361Z,71.41
2019-03-28T21:49:54.007Z,71.95
2019-03-28T21:52:24.680Z,73.13
2019-03-28T21:54:55.883Z,72.72
2019-03-28T21:57:26.814Z,73.95
2019-03-28T21:59:57.647Z,74.17
2019-03-28T22:02:28.379Z,74.82
2019-03-28T22:05:01.532Z,75.02
2019-03-28T22:07:32.399Z,75.06
2019-03-28T22:10:03.407Z,73.28
2019-03-28T22:12:34.282Z,75.12
2019-03-28T22:15:06.554Z,75.08
2019-03-28T22:17:37.699Z,73.93
2019-03-28T22:20:08.299Z,74.82
2019-03-28T22:22:38.890Z,74.95
2019-03-28T22:25:09.748Z,74.93
2019-03-28T22:27:40.242Z,74.70
2019-03-28T22:30:11.367Z,73.50
2019-03-28T22:32:42.266Z,73.71
2019-03-28T22:35:13.104Z,74.17
2019-03-28T22:37:44.778Z,74.77
2019-03-28T22:40:17.252Z,75.64
2019-03-28T22:42:47.699Z,75.19
2019-03-28T22:45:18.397Z,75.43
2019-03-28T22:47:48.886Z,75.57
2019-03-28T22:50:21.255Z,75.77
2019-03-28T22:52:51.943Z,75.57
2019-03-28T22:55:22.484Z,75.74
2019-03-28T22:57:54.094Z,75.67
2019-03-28T23:00:26.759Z,76.05
2019-03-28T23:02:59.046Z,75.82
2019-03-28T23:05:30.867Z,77.80
2019-03-28T23:08:01.568Z,77.97
2019-03-28T23:10:32.151Z,76.60
2019-03-28T23:13:02.652Z,77.99
2019-03-28T23:15:33.301Z,76.52
2019-03-28T23:18:04.690Z,77.70
2019-03-28T23:20:36.183Z,76.83
2019-03-28T23:23:06.695Z,77.11
2019-03-28T23:25:37.252Z,77.55
2019-03-28T23:28:08.084Z,78.15
2019-03-28T23:30:38.742Z,76.59
2019-03-28T23:33:09.465Z,76.91
2019-03-28T23:35:40.996Z,78.35
2019-03-28T23:38:11.763Z,77.49
2019-03-28T23:40:42.526Z,78.12
2019-03-28T23:43:13.200Z,78.52
2019-03-28T23:45:44.000Z,78.66
2019-03-28T23:48:14.674Z,79.14
2019-03-28T23:50:45.192Z,79.58
2019-03-28T23:53:15.725Z,79.86
2019-03-28T23:55:46.629Z,79.64
2019-03-28T23:58:17.305Z,80.33
